createdAt,value
2023-04-11T00:00:23.010Z,96431.41
2023-04-11T00:02:49.822Z,96419.72
2023-04-11T00:05:16.624Z,96421.69
2023-04-11T00:07:43.506Z,96388.56
2023-04-11T00:10:10.605Z,96371.50
2023-04-11T00:12:37.318Z,96364.06
2023-04-11T00:15:05.153Z,96350.16
2023-04-11T00:17:31.962Z,96367.78
2023-04-11T00:20:01.803Z,96371.22
2023-04-11T00:22:28.554Z,96380.63
2023-04-11T00:24:55.552Z,96386.56
2023-04-11T00:27:22.225Z,96380.63
2023-04-11T00:29:49.001Z,96337.88
2023-04-11T00:32:15.686Z,96359.63
2023-04-11T00:34:42.482Z,96379.09
2023-04-11T00:37:09.148Z,96438.50
2023-04-11T00:39:35.954Z,96465.28
2023-04-11T00:42:09.070Z,96504.78
2023-04-11T00:44:36.521Z,96515.38
2023-04-11T00:47:06.123Z,96548.38
2023-04-11T00:49:33.271Z,96555.56
2023-04-11T00:52:00.910Z,96541.16
2023-04-11T00:54:30.280Z,96544.97
2023-04-11T00:57:02.248Z,96523.47
2023-04-11T00:59:30.384Z,96562.06
2023-04-11T01:01:58.491Z,96597.69
2023-04-11T01:04:26.362Z,96593.22
2023-04-11T01:07:04.273Z,96584.47
2023-04-11T01:09:33.416Z,96567.03
2023-04-11T01:12:01.663Z,96573.22
2023-04-11T01:14:28.894Z,96575.31
2023-04-11T01:16:56.886Z,96541.56
2023-04-11T01:19:26.742Z,96543.19
2023-04-11T01:21:54.540Z,96571.22
2023-04-11T01:24:21.555Z,96591.59
2023-04-11T01:26:48.484Z,96609.75
2023-04-11T01:29:16.720Z,96581.69
2023-04-11T01:31:44.011Z,96562.03
2023-04-11T01:34:14.308Z,96556.13
2023-04-11T01:36:42.708Z,96571.50
2023-04-11T01:39:09.753Z,96572.75
2023-04-11T01:41:36.755Z,96590.56
2023-04-11T01:44:04.252Z,96615.06
2023-04-11T01:46:31.388Z,96632.78
2023-04-11T01:48:59.193Z,96644.81
2023-04-11T01:51:26.209Z,96631.56
2023-04-11T01:53:52.931Z,96641.41
2023-04-11T01:56:19.690Z,96626.06
2023-04-11T01:58:46.829Z,96600.00
2023-04-11T02:01:18.299Z,96588.88
2023-04-11T02:03:49.373Z,96575.34
2023-04-11T02:06:16.863Z,96575.34
2023-04-11T02:08:44.666Z,96571.50
2023-04-11T02:11:11.540Z,96574.88
2023-04-11T02:13:38.395Z,96570.88
2023-04-11T02:16:15.303Z,96575.78
2023-04-11T02:18:45.904Z,96581.13
2023-04-11T02:21:12.714Z,96565.91
2023-04-11T02:23:39.573Z,96552.97
2023-04-11T02:26:06.530Z,96537.91
2023-04-11T02:28:33.239Z,96559.22
2023-04-11T02:31:00.069Z,96559.41
2023-04-11T02:33:27.178Z,96549.44
2023-04-11T02:35:54.080Z,96558.44
2023-04-11T02:38:21.451Z,96543.06
2023-04-11T02:40:48.112Z,96534.88
2023-04-11T02:43:16.013Z,96526.63
2023-04-11T02:45:42.839Z,96537.56
2023-04-11T02:48:11.296Z,96531.97
2023-04-11T02:50:43.144Z,96509.59
2023-04-11T02:53:10.153Z,96501.25
2023-04-11T02:55:41.791Z,96496.34
2023-04-11T02:58:08.687Z,96507.16
2023-04-11T03:00:37.883Z,96520.84
2023-04-11T03:03:07.771Z,96539.13
2023-04-11T03:05:40.143Z,96551.97
2023-04-11T03:08:09.269Z,96553.94
2023-04-11T03:10:38.910Z,96536.94
2023-04-11T03:13:09.312Z,96544.06
2023-04-11T03:15:36.507Z,96535.97
2023-04-11T03:18:07.983Z,96534.47
2023-04-11T03:20:37.746Z,96535.06
2023-04-11T03:23:04.667Z,96550.28
2023-04-11T03:25:31.479Z,96551.22
2023-04-11T03:28:00.742Z,96561.47
2023-04-11T03:30:27.800Z,96559.44
2023-04-11T03:32:54.702Z,96563.13
2023-04-11T03:35:21.498Z,96562.53
2023-04-11T03:37:50.274Z,96553.50
2023-04-11T03:40:18.866Z,96557.94
2023-04-11T03:42:51.359Z,96563.28
2023-04-11T03:45:22.789Z,96557.34
2023-04-11T03:47:52.470Z,96559.81
2023-04-11T03:50:23.042Z,96549.28
2023-04-11T03:52:56.078Z,96534.69
2023-04-11T03:55:23.024Z,96543.22
2023-04-11T03:57:49.877Z,96528.75
2023-04-11T04:00:20.122Z,96546.13
2023-04-11T04:02:58.838Z,96546.88
2023-04-11T04:05:26.163Z,96552.19
2023-04-11T04:07:55.174Z,96568.19
2023-04-11T04:10:31.501Z,96567.47
2023-04-11T04:12:58.984Z,96584.94
2023-04-11T04:15:34.061Z,96589.06
2023-04-11T04:18:02.419Z,96617.09
2023-04-11T04:20:42.034Z,96632.16
2023-04-11T04:23:09.027Z,96628.66
2023-04-11T04:26:02.508Z,96638.41
2023-04-11T04:28:32.037Z,96641.28
2023-04-11T04:31:02.331Z,96649.03
2023-04-11T04:33:35.214Z,96654.25
2023-04-11T04:36:05.985Z,96654.97
2023-04-11T04:38:38.439Z,96666.69
2023-04-11T04:41:15.188Z,96668.97
2023-04-11T04:43:45.804Z,96681.44
2023-04-11T04:46:26.701Z,96676.25
2023-04-11T04:48:54.479Z,96676.72
2023-04-11T04:51:21.689Z,96687.53
2023-04-11T04:53:48.328Z,96695.44
2023-04-11T04:56:15.812Z,96689.78
2023-04-11T04:58:47.402Z,96689.44
2023-04-11T05:01:17.227Z,96688.44
2023-04-11T05:03:46.957Z,96685.22
2023-04-11T05:06:21.750Z,96689.47
2023-04-11T05:08:50.407Z,96696.94
2023-04-11T05:11:17.376Z,96701.81
2023-04-11T05:13:44.154Z,96708.63
2023-04-11T05:16:11.198Z,96714.28
2023-04-11T05:18:38.057Z,96711.03
2023-04-11T05:21:05.497Z,96719.72
2023-04-11T05:23:37.301Z,96721.09
2023-04-11T05:26:06.302Z,96727.81
2023-04-11T05:28:34.208Z,96748.56
2023-04-11T05:31:02.740Z,96754.16
2023-04-11T05:33:29.760Z,96768.94
2023-04-11T05:35:57.878Z,96772.91
2023-04-11T05:38:24.664Z,96776.25
2023-04-11T05:40:51.490Z,96780.00
2023-04-11T05:43:19.444Z,96783.84
2023-04-11T05:45:49.009Z,96791.78
2023-04-11T05:48:19.808Z,96798.69
2023-04-11T05:50:47.697Z,96834.19
2023-04-11T05:53:14.475Z,96837.88
2023-04-11T05:55:41.423Z,96858.59
2023-04-11T05:58:09.226Z,96881.69
2023-04-11T06:00:38.344Z,96881.13
2023-04-11T06:03:08.068Z,96870.13
2023-04-11T06:05:35.710Z,96873.34
2023-04-11T06:08:04.142Z,96884.28
2023-04-11T06:10:31.407Z,96903.06
2023-04-11T06:12:58.701Z,96916.44
2023-04-11T06:15:27.034Z,96929.47
2023-04-11T06:17:54.235Z,96926.97
2023-04-11T06:20:22.746Z,96937.94
2023-04-11T06:22:51.674Z,96933.38
2023-04-11T06:25:20.041Z,96959.72
2023-04-11T06:27:48.203Z,96988.69
2023-04-11T06:30:15.319Z,97013.41
2023-04-11T06:32:42.110Z,97025.88
2023-04-11T06:35:09.739Z,97020.44
2023-04-11T06:37:36.413Z,97026.53
2023-04-11T06:40:05.534Z,97042.09
2023-04-11T06:42:32.238Z,97060.78
2023-04-11T06:44:58.915Z,97058.78
2023-04-11T06:47:25.760Z,97080.06
2023-04-11T06:49:52.465Z,97082.53
2023-04-11T06:52:19.209Z,97116.91
2023-04-11T06:54:48.040Z,97119.44
2023-04-11T06:57:14.823Z,97124.25
2023-04-11T06:59:41.554Z,97129.47
2023-04-11T07:02:08.349Z,97161.53
2023-04-11T07:04:35.278Z,97155.13
2023-04-11T07:07:02.159Z,97144.31
2023-04-11T07:09:28.996Z,97183.59
2023-04-11T07:11:56.418Z,97238.44
2023-04-11T07:14:23.222Z,97259.06
2023-04-11T07:16:50.005Z,97279.41
2023-04-11T07:19:16.755Z,97312.75
2023-04-11T07:21:43.830Z,97323.31
2023-04-11T07:24:11.334Z,97313.47
2023-04-11T07:26:39.047Z,97302.25
2023-04-11T07:29:08.114Z,97285.59
2023-04-11T07:31:36.814Z,97298.16
2023-04-11T07:34:03.566Z,97298.50
2023-04-11T07:36:31.749Z,97283.56
2023-04-11T07:39:00.225Z,97296.13
2023-04-11T07:41:26.891Z,97315.97
2023-04-11T07:43:53.691Z,97313.56
2023-04-11T07:46:20.803Z,97303.72
2023-04-11T07:48:47.650Z,97301.25
2023-04-11T07:51:14.385Z,97315.25
2023-04-11T07:53:41.050Z,97354.53
2023-04-11T07:56:08.218Z,97374.72
2023-04-11T07:58:34.982Z,97369.56
2023-04-11T08:01:02.850Z,97366.84
2023-04-11T08:03:30.224Z,97361.97
2023-04-11T08:05:57.208Z,97383.38
2023-04-11T08:08:24.035Z,97349.75
2023-04-11T08:10:52.168Z,97358.72
2023-04-11T08:13:22.057Z,97380.34
2023-04-11T08:15:48.788Z,97369.38
2023-04-11T08:18:16.629Z,97368.22
2023-04-11T08:20:43.410Z,97369.38
2023-04-11T08:23:10.699Z,97410.19
2023-04-11T08:25:37.776Z,97415.09
2023-04-11T08:28:05.300Z,97439.44
2023-04-11T08:30:32.539Z,97430.84
2023-04-11T08:32:59.409Z,97432.78
2023-04-11T08:35:26.612Z,97450.50
2023-04-11T08:37:53.661Z,97455.06
2023-04-11T08:40:20.383Z,97483.66
2023-04-11T08:42:47.352Z,97510.03
2023-04-11T08:45:14.024Z,97516.41
2023-04-11T08:47:43.207Z,97571.69
2023-04-11T08:50:11.910Z,97612.28
2023-04-11T08:52:39.758Z,97621.50
2023-04-11T08:55:06.818Z,97622.22
2023-04-11T08:57:35.083Z,97657.97
2023-04-11T09:00:15.370Z,97660.03
2023-04-11T09:03:03.375Z,97731.31
2023-04-11T09:05:32.357Z,97700.28
2023-04-11T09:08:04.741Z,97721.59
2023-04-11T09:10:31.609Z,97732.59
2023-04-11T09:12:59.287Z,97743.16
2023-04-11T09:15:28.225Z,97717.59
2023-04-11T09:17:58.905Z,97768.31
2023-04-11T09:20:29.592Z,97751.97
2023-04-11T09:22:59.083Z,97757.88
2023-04-11T09:25:26.027Z,97741.59
2023-04-11T09:28:10.601Z,97770.97
2023-04-11T09:30:37.435Z,97753.00
2023-04-11T09:33:23.285Z,97732.97
2023-04-11T09:35:52.670Z,97782.38
2023-04-11T09:38:34.485Z,97785.44
2023-04-11T09:41:03.242Z,97799.56
2023-04-11T09:43:59.598Z,97782.75
2023-04-11T09:46:26.379Z,97792.75
2023-04-11T09:48:56.322Z,97787.31
2023-04-11T09:51:35.847Z,97793.75
2023-04-11T09:54:04.344Z,97790.78
2023-04-11T09:56:31.901Z,97796.44
2023-04-11T09:59:00.298Z,97792.09
2023-04-11T10:01:27.615Z,97807.81
2023-04-11T10:03:56.398Z,97797.06
2023-04-11T10:06:42.160Z,97795.78
2023-04-11T10:09:11.479Z,97798.72
2023-04-11T10:11:43.454Z,97792.31
2023-04-11T10:14:38.787Z,97792.59
2023-04-11T10:17:22.069Z,97775.00
2023-04-11T10:19:56.680Z,97733.59
2023-04-11T10:22:43.524Z,97732.44
2023-04-11T10:25:21.124Z,97734.75
2023-04-11T10:28:02.190Z,97748.75
2023-04-11T10:30:41.239Z,97751.00
2023-04-11T10:33:12.300Z,97775.53
2023-04-11T10:35:58.802Z,97776.56
2023-04-11T10:38:57.882Z,97803.94
2023-04-11T10:41:33.459Z,97776.31
2023-04-11T10:44:18.626Z,97788.47
2023-04-11T10:46:54.251Z,97800.63
2023-04-11T10:49:34.888Z,97806.78
2023-04-11T10:52:23.887Z,97809.69
2023-04-11T10:54:52.975Z,97804.00
2023-04-11T10:57:21.659Z,97809.81
2023-04-11T10:59:51.599Z,97821.44
2023-04-11T11:02:22.324Z,97801.78
2023-04-11T11:04:49.481Z,97813.38
2023-04-11T11:07:17.555Z,97809.13
2023-04-11T11:09:51.563Z,97805.72
2023-04-11T11:12:18.511Z,97814.03
2023-04-11T11:14:46.896Z,97810.06
2023-04-11T11:17:16.194Z,97815.13
2023-04-11T11:19:47.248Z,97823.25
2023-04-11T11:22:26.616Z,97820.69
2023-04-11T11:24:53.390Z,97803.00
2023-04-11T11:27:24.582Z,97823.31
2023-04-11T11:29:55.157Z,97824.53
2023-04-11T11:32:28.958Z,97825.59
2023-04-11T11:34:57.917Z,97818.16
2023-04-11T11:37:25.183Z,97817.00
2023-04-11T11:39:52.317Z,97821.22
2023-04-11T11:42:19.619Z,97817.06
2023-04-11T11:44:46.579Z,97806.91
2023-04-11T11:47:17.416Z,97824.09
2023-04-11T11:49:52.567Z,97823.03
2023-04-11T11:52:42.174Z,97831.16
2023-04-11T11:55:18.076Z,97827.72
2023-04-11T11:57:48.864Z,97824.50
2023-04-11T12:00:24.698Z,97813.72
2023-04-11T12:02:57.060Z,97824.53
2023-04-11T12:05:30.808Z,97817.94
2023-04-11T12:08:00.258Z,97813.72
2023-04-11T12:10:47.727Z,97820.13
2023-04-11T12:13:23.837Z,97814.00
2023-04-11T12:15:53.270Z,97816.28
2023-04-11T12:18:21.600Z,97812.72
2023-04-11T12:20:48.638Z,97805.84
2023-04-11T12:23:15.369Z,97809.56
2023-04-11T12:25:42.382Z,97791.78
2023-04-11T12:28:10.352Z,97815.22
2023-04-11T12:30:37.942Z,97815.22
2023-04-11T12:33:05.324Z,97809.94
2023-04-11T12:35:32.491Z,97816.97
2023-04-11T12:37:59.307Z,97820.28
2023-04-11T12:40:29.547Z,97818.28
2023-04-11T12:42:57.533Z,97820.50
2023-04-11T12:45:25.364Z,97823.66
2023-04-11T12:47:52.400Z,97816.03
2023-04-11T12:50:19.318Z,97818.56
2023-04-11T12:52:46.056Z,97820.38
2023-04-11T12:55:13.550Z,97817.09
2023-04-11T12:57:41.261Z,97818.13
2023-04-11T13:00:09.157Z,97823.22
2023-04-11T13:02:43.260Z,97833.56
2023-04-11T13:05:12.007Z,97838.66
2023-04-11T13:07:39.329Z,97827.69
2023-04-11T13:10:09.394Z,97825.94
2023-04-11T13:12:41.639Z,97826.41
2023-04-11T13:15:09.930Z,97822.63
2023-04-11T13:17:37.023Z,97821.56
2023-04-11T13:20:10.923Z,97823.44
2023-04-11T13:22:38.914Z,97830.19
2023-04-11T13:25:07.115Z,97825.59
2023-04-11T13:27:34.419Z,97825.16
2023-04-11T13:30:01.344Z,97830.38
2023-04-11T13:32:28.130Z,97834.09
2023-04-11T13:34:54.874Z,97833.13
2023-04-11T13:37:22.235Z,97834.41
2023-04-11T13:39:48.906Z,97828.78
2023-04-11T13:42:15.834Z,97838.91
2023-04-11T13:44:42.515Z,97832.25
2023-04-11T13:47:09.149Z,97835.44
2023-04-11T13:49:36.096Z,97837.97
2023-04-11T13:52:02.844Z,97826.91
2023-04-11T13:54:30.383Z,97827.63
2023-04-11T13:56:57.952Z,97822.44
2023-04-11T13:59:24.647Z,97836.81
2023-04-11T14:01:51.404Z,97831.50
2023-04-11T14:04:18.280Z,97828.16
2023-04-11T14:06:45.198Z,97832.41
2023-04-11T14:09:11.895Z,97829.53
2023-04-11T14:11:38.553Z,97824.66
2023-04-11T14:14:05.239Z,97822.41
2023-04-11T14:16:32.143Z,97830.81
2023-04-11T14:18:58.834Z,97825.06
2023-04-11T14:21:28.792Z,97827.25
2023-04-11T14:23:56.111Z,97821.13
2023-04-11T14:26:23.157Z,97824.09
2023-04-11T14:28:50.369Z,97821.25
2023-04-11T14:31:17.251Z,97825.94
2023-04-11T14:33:44.028Z,97819.75
2023-04-11T14:36:10.707Z,97827.22
2023-04-11T14:38:37.564Z,97822.13
2023-04-11T14:41:04.605Z,97827.34
2023-04-11T14:43:31.631Z,97813.91
2023-04-11T14:45:58.384Z,97827.16
2023-04-11T14:48:29.020Z,97822.88
2023-04-11T14:50:55.814Z,97817.53
2023-04-11T14:53:23.033Z,97818.44
2023-04-11T14:55:49.802Z,97804.97
2023-04-11T14:58:17.222Z,97814.16
2023-04-11T15:00:44.868Z,97820.88
2023-04-11T15:03:12.575Z,97812.44
2023-04-11T15:05:39.583Z,97807.50
2023-04-11T15:08:06.408Z,97811.84
2023-04-11T15:10:33.180Z,97811.78
2023-04-11T15:12:59.883Z,97808.06
2023-04-11T15:15:26.608Z,97812.34
2023-04-11T15:18:28.018Z,97818.59
2023-04-11T15:21:00.165Z,97801.72
2023-04-11T15:23:27.094Z,97791.47
2023-04-11T15:26:01.157Z,97805.84
2023-04-11T15:28:35.092Z,97803.63
2023-04-11T15:31:02.783Z,97800.78
2023-04-11T15:33:31.985Z,97801.16
2023-04-11T15:36:00.545Z,97798.47
2023-04-11T15:38:29.178Z,97804.03
2023-04-11T15:40:58.742Z,97806.75
2023-04-11T15:43:26.032Z,97800.97
2023-04-11T15:45:54.019Z,97804.97
2023-04-11T15:48:20.892Z,97810.22
2023-04-11T15:50:47.619Z,97799.97
2023-04-11T15:53:14.511Z,97795.88
2023-04-11T15:55:42.913Z,97793.91
2023-04-11T15:58:10.508Z,97798.47
2023-04-11T16:00:38.596Z,97803.31
2023-04-11T16:03:10.780Z,97787.88
2023-04-11T16:05:41.007Z,97783.59
2023-04-11T16:08:08.043Z,97797.00
2023-04-11T16:10:35.183Z,97798.16
2023-04-11T16:13:02.733Z,97787.84
2023-04-11T16:15:29.546Z,97786.84
2023-04-11T16:17:56.457Z,97794.81
2023-04-11T16:20:23.299Z,97786.22
2023-04-11T16:22:49.977Z,97793.63
2023-04-11T16:25:19.579Z,97782.13
2023-04-11T16:27:47.491Z,97779.84
2023-04-11T16:30:14.378Z,97773.38
2023-04-11T16:32:41.271Z,97775.84
2023-04-11T16:35:08.546Z,97777.25
2023-04-11T16:37:35.738Z,97768.91
2023-04-11T16:40:02.524Z,97765.72
2023-04-11T16:42:29.313Z,97777.66
2023-04-11T16:44:56.194Z,97768.38
2023-04-11T16:47:26.297Z,97769.91
2023-04-11T16:49:53.724Z,97770.22
2023-04-11T16:52:21.462Z,97769.00
2023-04-11T16:54:48.397Z,97765.63
2023-04-11T16:57:15.134Z,97769.47
2023-04-11T16:59:42.160Z,97764.78
2023-04-11T17:02:09.029Z,97761.59
2023-04-11T17:04:36.123Z,97753.94
2023-04-11T17:07:02.934Z,97765.63
2023-04-11T17:09:29.883Z,97756.44
2023-04-11T17:11:57.863Z,97748.19
2023-04-11T17:14:24.795Z,97754.94
2023-04-11T17:16:51.767Z,97739.13
2023-04-11T17:19:18.520Z,97744.03
2023-04-11T17:21:45.424Z,97736.84
2023-04-11T17:24:12.200Z,97740.19
2023-04-11T17:26:38.859Z,97740.03
2023-04-11T17:29:06.666Z,97740.47
2023-04-11T17:31:34.203Z,97735.28
2023-04-11T17:34:00.944Z,97726.34
2023-04-11T17:36:28.563Z,97725.91
2023-04-11T17:38:55.349Z,97733.09
2023-04-11T17:41:23.019Z,97742.00
2023-04-11T17:43:49.832Z,97738.16
2023-04-11T17:46:16.618Z,97729.91
2023-04-11T17:48:43.412Z,97736.03
2023-04-11T17:51:10.124Z,97721.44
2023-04-11T17:53:37.184Z,97726.06
2023-04-11T17:56:06.269Z,97720.06
2023-04-11T17:58:33.662Z,97720.25
2023-04-11T18:01:00.395Z,97709.81
2023-04-11T18:03:27.279Z,97696.16
2023-04-11T18:05:54.737Z,97693.78
2023-04-11T18:08:29.848Z,97679.66
2023-04-11T18:11:04.481Z,97671.63
2023-04-11T18:13:31.727Z,97672.53
2023-04-11T18:15:58.726Z,97647.97
2023-04-11T18:18:26.100Z,97643.94
2023-04-11T18:20:52.792Z,97641.41
2023-04-11T18:23:19.425Z,97628.88
2023-04-11T18:25:46.274Z,97617.72
2023-04-11T18:28:12.954Z,97634.88
2023-04-11T18:30:39.659Z,97637.66
2023-04-11T18:33:06.511Z,97631.81
2023-04-11T18:35:33.217Z,97615.69
2023-04-11T18:38:00.365Z,97616.19
2023-04-11T18:40:27.853Z,97625.81
2023-04-11T18:42:56.299Z,97622.91
2023-04-11T18:45:23.772Z,97623.97
2023-04-11T18:47:51.197Z,97628.50
2023-04-11T18:50:19.165Z,97626.91
2023-04-11T18:52:49.802Z,97623.91
2023-04-11T18:55:21.209Z,97610.56
2023-04-11T18:57:49.341Z,97616.81
2023-04-11T19:00:19.656Z,97604.31
2023-04-11T19:02:47.860Z,97597.31
2023-04-11T19:05:17.327Z,97593.44
2023-04-11T19:07:46.316Z,97590.22
2023-04-11T19:10:14.894Z,97588.09
2023-04-11T19:12:42.945Z,97573.31
2023-04-11T19:15:11.794Z,97566.38
2023-04-11T19:17:40.116Z,97557.69
2023-04-11T19:20:13.707Z,97558.13
2023-04-11T19:22:42.502Z,97556.00
2023-04-11T19:25:11.970Z,97549.97
2023-04-11T19:27:42.360Z,97543.06
2023-04-11T19:30:12.248Z,97533.75
2023-04-11T19:32:44.053Z,97527.34
2023-04-11T19:35:13.054Z,97511.03
2023-04-11T19:37:41.802Z,97504.78
2023-04-11T19:40:14.405Z,97499.88
2023-04-11T19:42:43.711Z,97500.53
2023-04-11T19:45:12.629Z,97499.19
2023-04-11T19:47:44.067Z,97504.13
2023-04-11T19:50:13.855Z,97514.28
2023-04-11T19:52:43.350Z,97510.81
2023-04-11T19:55:12.601Z,97519.88
2023-04-11T19:57:41.796Z,97517.16
2023-04-11T20:00:17.897Z,97515.91
2023-04-11T20:02:48.803Z,97492.88
2023-04-11T20:05:19.442Z,97502.47
2023-04-11T20:07:48.903Z,97489.59
2023-04-11T20:10:17.832Z,97496.78
2023-04-11T20:12:50.114Z,97484.41
2023-04-11T20:15:18.179Z,97486.66
2023-04-11T20:17:47.753Z,97482.91
2023-04-11T20:20:17.847Z,97477.81
2023-04-11T20:22:46.062Z,97472.91
2023-04-11T20:25:14.013Z,97472.63
2023-04-11T20:27:43.387Z,97460.34
2023-04-11T20:30:11.614Z,97476.53
2023-04-11T20:32:40.453Z,97479.06
2023-04-11T20:35:10.541Z,97461.41
2023-04-11T20:37:40.588Z,97464.19
2023-04-11T20:40:10.970Z,97457.06
2023-04-11T20:42:43.076Z,97442.50
2023-04-11T20:45:18.630Z,97443.94
2023-04-11T20:47:48.041Z,97442.78
2023-04-11T20:50:17.168Z,97438.00
2023-04-11T20:52:46.654Z,97420.34
2023-04-11T20:55:16.370Z,97425.78
2023-04-11T20:57:43.177Z,97437.50
2023-04-11T21:00:17.426Z,97427.69
2023-04-11T21:02:46.213Z,97433.44
2023-04-11T21:05:14.310Z,97435.47
2023-04-11T21:07:42.204Z,97434.72
2023-04-11T21:10:09.965Z,97442.09
2023-04-11T21:12:37.348Z,97442.31
2023-04-11T21:15:04.890Z,97422.25
2023-04-11T21:17:34.221Z,97426.94
2023-04-11T21:20:01.894Z,97422.81
2023-04-11T21:22:28.651Z,97410.91
2023-04-11T21:24:55.349Z,97419.66
2023-04-11T21:27:22.051Z,97413.16
2023-04-11T21:29:48.703Z,97414.97
2023-04-11T21:32:15.654Z,97398.63
2023-04-11T21:34:42.545Z,97389.41
2023-04-11T21:37:09.249Z,97398.34
2023-04-11T21:39:36.167Z,97377.34
2023-04-11T21:42:02.934Z,97375.34
2023-04-11T21:44:29.860Z,97366.00
2023-04-11T21:46:56.584Z,97351.66
2023-04-11T21:49:24.249Z,97360.25
2023-04-11T21:51:51.083Z,97352.47
2023-04-11T21:54:17.728Z,97344.81
2023-04-11T21:56:45.106Z,97339.19
2023-04-11T21:59:11.990Z,97340.22
2023-04-11T22:01:38.756Z,97345.47
2023-04-11T22:04:05.845Z,97342.13
2023-04-11T22:06:32.754Z,97327.75
2023-04-11T22:09:01.517Z,97314.81
2023-04-11T22:11:28.334Z,97307.91
2023-04-11T22:13:55.539Z,97309.25
2023-04-11T22:16:30.498Z,97302.50
2023-04-11T22:19:00.917Z,97309.94
2023-04-11T22:21:28.922Z,97298.00
2023-04-11T22:23:57.667Z,97304.16
2023-04-11T22:26:29.597Z,97294.38
2023-04-11T22:29:01.385Z,97284.88
2023-04-11T22:31:35.151Z,97279.75
2023-04-11T22:34:05.017Z,97279.59
2023-04-11T22:36:36.157Z,97269.41
2023-04-11T22:39:07.082Z,97275.06
2023-04-11T22:41:35.593Z,97245.25
2023-04-11T22:44:02.847Z,97231.25
2023-04-11T22:46:31.179Z,97234.22
2023-04-11T22:49:00.768Z,97231.91
2023-04-11T22:51:30.437Z,97234.09
2023-04-11T22:53:57.811Z,97220.03
2023-04-11T22:56:24.702Z,97210.59
2023-04-11T22:58:51.979Z,97209.81
2023-04-11T23:01:18.896Z,97209.06
2023-04-11T23:03:46.048Z,97207.53
2023-04-11T23:06:12.919Z,97188.56
2023-04-11T23:08:39.626Z,97183.88
2023-04-11T23:11:07.437Z,97171.81
2023-04-11T23:13:34.241Z,97156.56
2023-04-11T23:16:01.117Z,97170.69
2023-04-11T23:18:27.857Z,97168.88
2023-04-11T23:20:54.773Z,97177.88
2023-04-11T23:23:21.438Z,97181.56
2023-04-11T23:25:48.159Z,97161.16
2023-04-11T23:28:14.839Z,97155.03
2023-04-11T23:30:41.793Z,97165.13
2023-04-11T23:33:09.157Z,97153.66
2023-04-11T23:35:36.303Z,97145.38
2023-04-11T23:38:03.833Z,97142.88
2023-04-11T23:40:30.957Z,97128.19
2023-04-11T23:42:58.238Z,97127.88
2023-04-11T23:45:25.044Z,97129.91
2023-04-11T23:47:52.390Z,97125.78
2023-04-11T23:50:19.828Z,97116.16
2023-04-11T23:52:47.093Z,97101.97
2023-04-11T23:55:14.414Z,97090.84
2023-04-11T23:57:41.208Z,97086.44
